createdAt,value
2023-10-30T00:02:20.879Z,95348.78
2023-10-30T00:07:26.560Z,95335.75
2023-10-30T00:12:30.884Z,95337.94
2023-10-30T00:17:33.841Z,95340.09
2023-10-30T00:22:36.795Z,95331.97
2023-10-30T00:27:41.559Z,95337.25
2023-10-30T00:32:44.510Z,95327.06
2023-10-30T00:37:47.475Z,95324.97
2023-10-30T00:42:51.645Z,95326.06
2023-10-30T00:47:54.555Z,95325.53
2023-10-30T00:52:57.454Z,95316.72
2023-10-30T00:58:01.653Z,95318.09
2023-10-30T01:03:04.656Z,95311.88
2023-10-30T01:08:09.769Z,95313.47
2023-10-30T01:13:14.170Z,95309.19
2023-10-30T01:18:17.191Z,95310.00
2023-10-30T01:23:20.056Z,95317.81
2023-10-30T01:28:24.284Z,95300.78
2023-10-30T01:33:27.293Z,95306.19
2023-10-30T01:38:30.282Z,95291.88
2023-10-30T01:43:35.717Z,95299.97
2023-10-30T01:48:39.064Z,95280.56
2023-10-30T01:53:41.986Z,95279.47
2023-10-30T01:58:46.237Z,95277.88
2023-10-30T02:03:50.220Z,95284.09
2023-10-30T02:08:53.239Z,95285.19
2023-10-30T02:13:58.007Z,95279.47
2023-10-30T02:19:01.041Z,95279.63
2023-10-30T02:24:07.417Z,95279.47
2023-10-30T02:29:11.766Z,95275.69
2023-10-30T02:34:15.153Z,95267.44
2023-10-30T02:39:18.157Z,95253.91
2023-10-30T02:44:22.371Z,95256.81
2023-10-30T02:49:25.809Z,95263.91
2023-10-30T02:54:29.398Z,95256.53
2023-10-30T02:59:33.754Z,95263.03
2023-10-30T03:04:36.793Z,95248.50
2023-10-30T03:09:40.094Z,95256.03
2023-10-30T03:14:45.096Z,95249.81
2023-10-30T03:19:48.573Z,95246.22
2023-10-30T03:24:51.562Z,95236.03
2023-10-30T03:29:55.863Z,95235.94
2023-10-30T03:34:58.689Z,95247.25
2023-10-30T03:40:01.750Z,95255.16
2023-10-30T03:45:08.563Z,95246.97
2023-10-30T03:50:14.060Z,95252.94
2023-10-30T03:55:17.027Z,95246.75
2023-10-30T04:00:21.656Z,95237.22
2023-10-30T04:05:24.565Z,95241.34
2023-10-30T04:10:27.452Z,95243.66
2023-10-30T04:15:34.362Z,95247.75
2023-10-30T04:20:45.428Z,95234.75
2023-10-30T04:25:49.811Z,95233.06
2023-10-30T04:30:54.034Z,95230.97
2023-10-30T04:35:56.897Z,95218.53
2023-10-30T04:40:59.936Z,95211.63
2023-10-30T04:46:04.528Z,95219.03
2023-10-30T04:51:07.520Z,95216.34
2023-10-30T04:56:11.191Z,95210.66
2023-10-30T05:01:15.543Z,95213.13
2023-10-30T05:06:19.066Z,95213.44
2023-10-30T05:11:22.308Z,95198.53
2023-10-30T05:16:26.540Z,95200.41
2023-10-30T05:21:29.904Z,95189.09
2023-10-30T05:26:32.785Z,95189.81
2023-10-30T05:31:37.172Z,95196.81
2023-10-30T05:36:40.462Z,95203.94
2023-10-30T05:41:43.408Z,95199.84
2023-10-30T05:46:47.614Z,95194.09
2023-10-30T05:51:50.516Z,95202.22
2023-10-30T05:56:53.370Z,95199.50
2023-10-30T06:01:57.628Z,95197.72
2023-10-30T06:07:00.475Z,95197.91
2023-10-30T06:12:04.008Z,95197.41
2023-10-30T06:17:08.280Z,95188.22
2023-10-30T06:22:11.179Z,95186.22
2023-10-30T06:27:14.140Z,95182.22
2023-10-30T06:32:18.404Z,95180.59
2023-10-30T06:37:21.325Z,95182.31
2023-10-30T06:42:24.315Z,95186.81
2023-10-30T06:47:30.254Z,95197.63
2023-10-30T06:52:33.239Z,95196.03
2023-10-30T06:57:36.174Z,95191.94
2023-10-30T07:02:41.523Z,95196.44
2023-10-30T07:07:44.572Z,95193.72
2023-10-30T07:12:47.502Z,95201.84
2023-10-30T07:17:51.845Z,95185.13
2023-10-30T07:22:54.740Z,95179.13
2023-10-30T07:27:58.423Z,95182.63
2023-10-30T07:33:03.510Z,95173.91
2023-10-30T07:38:07.119Z,95162.41
2023-10-30T07:43:10.229Z,95168.50
2023-10-30T07:48:14.446Z,95165.00
2023-10-30T07:53:17.477Z,95178.13
2023-10-30T07:58:20.334Z,95175.75
2023-10-30T08:03:24.777Z,95176.84
2023-10-30T08:08:29.902Z,95186.22
2023-10-30T08:13:33.516Z,95184.22
2023-10-30T08:18:37.870Z,95181.63
2023-10-30T08:23:41.014Z,95182.53
2023-10-30T08:28:45.933Z,95179.75
2023-10-30T08:33:50.244Z,95177.84
2023-10-30T08:38:55.483Z,95172.44
2023-10-30T08:43:58.641Z,95170.34
2023-10-30T08:49:02.945Z,95174.63
2023-10-30T08:54:06.007Z,95182.53
2023-10-30T08:59:09.176Z,95187.66
2023-10-30T09:04:14.715Z,95185.66
2023-10-30T09:09:17.733Z,95178.72
2023-10-30T09:14:20.600Z,95181.06
2023-10-30T09:19:24.859Z,95177.84
2023-10-30T09:24:28.065Z,95183.25
2023-10-30T09:29:30.963Z,95190.19
2023-10-30T09:34:35.941Z,95197.28
2023-10-30T09:39:38.899Z,95198.81
2023-10-30T09:44:42.052Z,95194.50
2023-10-30T09:49:46.741Z,95173.44
2023-10-30T09:54:51.533Z,95163.22
2023-10-30T09:59:56.174Z,95189.16
2023-10-30T10:05:01.147Z,95188.06
2023-10-30T10:10:06.976Z,95193.72
2023-10-30T10:15:10.457Z,95194.56
2023-10-30T10:20:14.956Z,95173.72
2023-10-30T10:25:19.658Z,95194.06
2023-10-30T10:30:24.469Z,95172.84
2023-10-30T10:35:28.800Z,95141.56
2023-10-30T10:40:31.711Z,95132.38
2023-10-30T10:45:34.639Z,95124.56
2023-10-30T10:50:38.891Z,95114.47
2023-10-30T10:55:44.466Z,95085.81
2023-10-30T11:00:49.115Z,95078.63
2023-10-30T11:05:54.392Z,95091.84
2023-10-30T11:10:59.082Z,95077.44
2023-10-30T11:16:09.697Z,95060.16
2023-10-30T11:21:16.335Z,95024.25
2023-10-30T11:26:49.090Z,95011.59
2023-10-30T11:32:04.177Z,95001.72
2023-10-30T11:37:12.246Z,95008.25
2023-10-30T11:42:29.182Z,95033.88
2023-10-30T11:47:32.117Z,95116.50
2023-10-30T11:52:36.885Z,95085.53
2023-10-30T11:57:40.176Z,95090.13
2023-10-30T12:02:43.736Z,95110.91
2023-10-30T12:07:48.149Z,95084.16
2023-10-30T12:12:51.105Z,95055.19
2023-10-30T12:17:54.108Z,95035.47
2023-10-30T12:22:58.619Z,95038.06
2023-10-30T12:28:02.465Z,95032.16
2023-10-30T12:33:05.891Z,95039.47
2023-10-30T12:38:16.474Z,95033.06
2023-10-30T12:43:20.841Z,95028.75
2023-10-30T12:48:23.734Z,95014.44
2023-10-30T12:53:27.936Z,94998.50
2023-10-30T12:58:30.798Z,95002.50
2023-10-30T13:03:34.787Z,94998.22
2023-10-30T13:08:39.177Z,95000.91
2023-10-30T13:13:42.085Z,95023.63
2023-10-30T13:18:44.936Z,95059.88
2023-10-30T13:23:49.594Z,95065.28
2023-10-30T13:28:52.421Z,95074.78
2023-10-30T13:33:55.377Z,95067.78
2023-10-30T13:38:59.640Z,95073.97
2023-10-30T13:44:02.825Z,95045.53
2023-10-30T13:49:07.309Z,95029.88
2023-10-30T13:54:11.569Z,95021.13
2023-10-30T13:59:14.427Z,95044.69
2023-10-30T14:04:18.416Z,95037.66
2023-10-30T14:09:22.761Z,95041.75
2023-10-30T14:14:25.623Z,95023.63
2023-10-30T14:19:28.499Z,95019.06
2023-10-30T14:24:32.849Z,95060.09
2023-10-30T14:29:35.797Z,95019.25
2023-10-30T14:34:39.650Z,95037.88
2023-10-30T14:39:44.295Z,95066.81
2023-10-30T14:44:47.505Z,95057.09
2023-10-30T14:49:50.610Z,95073.03
2023-10-30T14:54:54.949Z,95097.38
2023-10-30T14:59:57.839Z,95083.63
2023-10-30T15:05:01.274Z,95057.41
2023-10-30T15:10:06.585Z,95077.63
2023-10-30T15:15:10.143Z,95072.72
2023-10-30T15:20:13.423Z,95071.63
2023-10-30T15:25:18.930Z,95072.13
2023-10-30T15:30:22.055Z,95075.41
2023-10-30T15:35:24.930Z,95067.31
2023-10-30T15:40:29.160Z,95040.25
2023-10-30T15:45:32.083Z,95035.97
2023-10-30T15:50:38.069Z,95050.00
2023-10-30T16:00:50.079Z,95062.09
2023-10-30T16:11:11.728Z,95070.53
2023-10-30T16:16:23.943Z,95069.13
2023-10-30T16:21:27.458Z,95066.72
2023-10-30T16:26:31.928Z,95062.41
2023-10-30T16:31:34.868Z,95062.09
2023-10-30T16:36:37.781Z,95072.59
2023-10-30T16:41:43.667Z,95080.44
2023-10-30T16:46:46.702Z,95104.78
2023-10-30T16:51:49.699Z,95105.25
2023-10-30T16:56:53.983Z,95109.59
2023-10-30T17:01:56.986Z,95112.59
2023-10-30T17:07:00.046Z,95120.69
2023-10-30T17:12:04.724Z,95133.41
2023-10-30T17:17:07.705Z,95144.53
2023-10-30T17:22:10.578Z,95146.63
2023-10-30T17:27:15.231Z,95156.97
2023-10-30T17:32:18.192Z,95152.06
2023-10-30T17:37:21.299Z,95145.81
2023-10-30T17:42:25.623Z,95142.81
2023-10-30T17:47:28.575Z,95140.41
2023-10-30T17:52:31.480Z,95140.13
2023-10-30T17:57:36.016Z,95135.19
2023-10-30T18:02:38.949Z,95129.59
2023-10-30T18:07:41.833Z,95136.31
2023-10-30T18:12:46.130Z,95139.03
2023-10-30T18:17:51.241Z,95104.97
2023-10-30T18:22:54.136Z,95072.31
2023-10-30T18:27:58.318Z,95124.50
2023-10-30T18:33:01.383Z,95157.06
2023-10-30T18:38:05.338Z,95170.88
2023-10-30T18:43:09.674Z,95172.28
2023-10-30T18:48:13.176Z,95161.25
2023-10-30T18:53:16.105Z,95180.44
2023-10-30T18:58:20.308Z,95183.16
2023-10-30T19:03:23.845Z,95186.47
2023-10-30T19:08:28.778Z,95198.06
2023-10-30T19:13:33.219Z,95197.03
2023-10-30T19:18:36.219Z,95197.88
2023-10-30T19:23:39.063Z,95194.13
2023-10-30T19:28:46.294Z,95203.56
2023-10-30T19:33:50.314Z,95199.56
2023-10-30T19:38:53.164Z,95216.59
2023-10-30T19:43:58.959Z,95233.09
2023-10-30T19:49:01.856Z,95217.97
2023-10-30T19:54:04.939Z,95222.88
2023-10-30T19:59:09.140Z,95232.06
2023-10-30T20:04:12.014Z,95245.59
2023-10-30T20:09:15.931Z,95249.72
2023-10-30T20:14:20.305Z,95234.28
2023-10-30T20:19:23.214Z,95236.19
2023-10-30T20:24:26.041Z,95223.47
2023-10-30T20:29:33.061Z,95238.09
2023-10-30T20:34:36.099Z,95227.84
2023-10-30T20:39:39.007Z,95242.47
2023-10-30T20:44:43.267Z,95271.09
2023-10-30T20:49:46.143Z,95282.03
2023-10-30T20:54:49.209Z,95301.22
2023-10-30T20:59:53.459Z,95288.72
2023-10-30T21:04:57.396Z,95292.31
2023-10-30T21:10:03.499Z,95306.44
2023-10-30T21:15:09.671Z,95303.72
2023-10-30T21:20:12.965Z,95297.50
2023-10-30T21:25:15.928Z,95284.94
2023-10-30T21:30:21.572Z,95263.84
2023-10-30T21:35:24.609Z,95276.84
2023-10-30T21:40:27.513Z,95287.94
2023-10-30T21:45:31.732Z,95300.06
2023-10-30T21:50:34.602Z,95295.16
2023-10-30T21:55:37.484Z,95312.47
2023-10-30T22:00:45.113Z,95323.88
2023-10-30T22:05:47.970Z,95330.06
2023-10-30T22:10:50.897Z,95327.38
2023-10-30T22:15:55.105Z,95327.09
2023-10-30T22:20:58.092Z,95333.09
2023-10-30T22:26:01.156Z,95345.78
2023-10-30T22:31:05.636Z,95346.88
2023-10-30T22:36:09.208Z,95348.50
2023-10-30T22:41:12.341Z,95349.88
2023-10-30T22:46:16.611Z,95349.59
2023-10-30T22:51:19.578Z,95354.56
2023-10-30T22:56:23.495Z,95354.56
2023-10-30T23:01:27.864Z,95361.34
2023-10-30T23:06:32.683Z,95371.63
2023-10-30T23:11:36.503Z,95380.03
2023-10-30T23:16:40.807Z,95388.16
2023-10-30T23:21:43.967Z,95382.22
2023-10-30T23:26:46.814Z,95402.44
2023-10-30T23:31:52.329Z,95405.13
2023-10-30T23:36:55.225Z,95414.06
2023-10-30T23:41:58.119Z,95424.06
2023-10-30T23:47:02.424Z,95418.66
2023-10-30T23:52:05.648Z,95419.75
2023-10-30T23:57:08.504Z,95423.53
